sensor_id;sensor_type;location;lat;lon;timestamp;P1;durP1;ratioP1;P2;durP2;ratioP2
49464;SDS011;35358;49.342;8.802;2022-07-22T00:00:53;7.65;;;6.63;;
49464;SDS011;35358;49.342;8.802;2022-07-22T00:03:18;7.63;;;6.40;;
49464;SDS011;35358;49.342;8.802;2022-07-22T00:05:46;8.45;;;7.07;;
49464;SDS011;35358;49.342;8.802;2022-07-22T00:08:17;10.25;;;6.75;;
49464;SDS011;35358;49.342;8.802;2022-07-22T00:10:42;7.18;;;6.47;;
49464;SDS011;35358;49.342;8.802;2022-07-22T00:13:08;7.30;;;6.60;;
49464;SDS011;35358;49.342;8.802;2022-07-22T00:15:39;7.78;;;6.97;;
49464;SDS011;35358;49.342;8.802;2022-07-22T00:18:07;7.05;;;6.28;;
49464;SDS011;35358;49.342;8.802;2022-07-22T00:20:32;9.35;;;6.45;;
49464;SDS011;35358;49.342;8.802;2022-07-22T00:23:00;8.25;;;7.00;;
49464;SDS011;35358;49.342;8.802;2022-07-22T00:25:26;8.25;;;6.72;;
49464;SDS011;35358;49.342;8.802;2022-07-22T00:27:53;14.55;;;8.00;;
49464;SDS011;35358;49.342;8.802;2022-07-22T00:30:19;8.57;;;6.63;;
49464;SDS011;35358;49.342;8.802;2022-07-22T00:32:45;7.70;;;6.95;;
49464;SDS011;35358;49.342;8.802;2022-07-22T00:35:12;8.10;;;7.18;;
49464;SDS011;35358;49.342;8.802;2022-07-22T00:37:38;7.63;;;6.88;;
49464;SDS011;35358;49.342;8.802;2022-07-22T00:40:04;9.40;;;7.63;;
49464;SDS011;35358;49.342;8.802;2022-07-22T00:42:34;8.07;;;7.28;;
49464;SDS011;35358;49.342;8.802;2022-07-22T00:45:05;8.23;;;7.22;;
49464;SDS011;35358;49.342;8.802;2022-07-22T00:47:31;10.55;;;8.20;;
49464;SDS011;35358;49.342;8.802;2022-07-22T00:49:57;8.52;;;7.07;;
49464;SDS011;35358;49.342;8.802;2022-07-22T00:52:23;9.68;;;7.50;;
49464;SDS011;35358;49.342;8.802;2022-07-22T00:54:49;8.35;;;6.80;;
49464;SDS011;35358;49.342;8.802;2022-07-22T00:57:18;8.43;;;6.93;;
49464;SDS011;35358;49.342;8.802;2022-07-22T00:59:49;10.85;;;7.82;;
49464;SDS011;35358;49.342;8.802;2022-07-22T01:02:14;9.23;;;7.78;;
49464;SDS011;35358;49.342;8.802;2022-07-22T01:04:40;9.48;;;8.20;;
49464;SDS011;35358;49.342;8.802;2022-07-22T01:07:06;8.40;;;7.55;;
49464;SDS011;35358;49.342;8.802;2022-07-22T01:09:31;9.32;;;7.72;;
49464;SDS011;35358;49.342;8.802;2022-07-22T01:12:00;8.23;;;7.43;;
49464;SDS011;35358;49.342;8.802;2022-07-22T01:14:27;9.35;;;7.68;;
49464;SDS011;35358;49.342;8.802;2022-07-22T01:16:54;7.82;;;6.82;;
49464;SDS011;35358;49.342;8.802;2022-07-22T01:19:22;7.95;;;7.15;;
49464;SDS011;35358;49.342;8.802;2022-07-22T01:21:48;8.20;;;7.40;;
49464;SDS011;35358;49.342;8.802;2022-07-22T01:24:18;7.50;;;6.68;;
49464;SDS011;35358;49.342;8.802;2022-07-22T01:26:44;8.40;;;7.53;;
49464;SDS011;35358;49.342;8.802;2022-07-22T01:29:12;9.68;;;8.27;;
49464;SDS011;35358;49.342;8.802;2022-07-22T01:31:37;10.68;;;8.07;;
49464;SDS011;35358;49.342;8.802;2022-07-22T01:34:06;8.73;;;7.72;;
49464;SDS011;35358;49.342;8.802;2022-07-22T01:36:31;9.65;;;8.68;;
49464;SDS011;35358;49.342;8.802;2022-07-22T01:38:59;8.55;;;7.22;;
49464;SDS011;35358;49.342;8.802;2022-07-22T01:41:25;11.38;;;8.68;;
49464;SDS011;35358;49.342;8.802;2022-07-22T01:43:50;8.75;;;7.82;;
49464;SDS011;35358;49.342;8.802;2022-07-22T01:46:16;10.05;;;7.82;;
49464;SDS011;35358;49.342;8.802;2022-07-22T01:48:44;8.35;;;7.55;;
49464;SDS011;35358;49.342;8.802;2022-07-22T01:51:10;9.20;;;7.85;;
49464;SDS011;35358;49.342;8.802;2022-07-22T01:53:38;8.43;;;7.57;;
49464;SDS011;35358;49.342;8.802;2022-07-22T01:56:06;9.23;;;8.18;;
49464;SDS011;35358;49.342;8.802;2022-07-22T01:58:32;11.32;;;7.22;;
49464;SDS011;35358;49.342;8.802;2022-07-22T02:00:58;8.43;;;7.53;;
49464;SDS011;35358;49.342;8.802;2022-07-22T02:03:24;8.85;;;7.60;;
49464;SDS011;35358;49.342;8.802;2022-07-22T02:05:49;8.45;;;7.65;;
49464;SDS011;35358;49.342;8.802;2022-07-22T02:08:20;8.75;;;7.63;;
49464;SDS011;35358;49.342;8.802;2022-07-22T02:10:46;12.40;;;8.13;;
49464;SDS011;35358;49.342;8.802;2022-07-22T02:13:12;9.50;;;7.40;;
49464;SDS011;35358;49.342;8.802;2022-07-22T02:15:40;9.98;;;8.52;;
49464;SDS011;35358;49.342;8.802;2022-07-22T02:18:09;8.27;;;7.32;;
49464;SDS011;35358;49.342;8.802;2022-07-22T02:20:36;8.98;;;7.68;;
49464;SDS011;35358;49.342;8.802;2022-07-22T02:23:04;8.30;;;7.28;;
49464;SDS011;35358;49.342;8.802;2022-07-22T02:25:30;7.93;;;6.93;;
49464;SDS011;35358;49.342;8.802;2022-07-22T02:27:58;10.27;;;8.20;;
49464;SDS011;35358;49.342;8.802;2022-07-22T02:30:28;10.63;;;8.35;;
49464;SDS011;35358;49.342;8.802;2022-07-22T02:32:58;10.07;;;7.75;;
49464;SDS011;35358;49.342;8.802;2022-07-22T02:35:24;8.90;;;8.00;;
49464;SDS011;35358;49.342;8.802;2022-07-22T02:37:50;9.43;;;8.23;;
49464;SDS011;35358;49.342;8.802;2022-07-22T02:40:15;11.57;;;7.78;;
49464;SDS011;35358;49.342;8.802;2022-07-22T02:42:41;8.52;;;7.70;;
49464;SDS011;35358;49.342;8.802;2022-07-22T02:45:07;10.20;;;8.48;;
49464;SDS011;35358;49.342;8.802;2022-07-22T02:47:33;9.57;;;8.02;;
49464;SDS011;35358;49.342;8.802;2022-07-22T02:49:59;12.23;;;8.55;;
49464;SDS011;35358;49.342;8.802;2022-07-22T02:52:25;13.80;;;9.45;;
49464;SDS011;35358;49.342;8.802;2022-07-22T02:54:52;9.63;;;8.32;;
49464;SDS011;35358;49.342;8.802;2022-07-22T02:57:20;8.77;;;7.88;;
49464;SDS011;35358;49.342;8.802;2022-07-22T02:59:46;13.43;;;9.40;;
49464;SDS011;35358;49.342;8.802;2022-07-22T03:02:11;11.80;;;9.55;;
49464;SDS011;35358;49.342;8.802;2022-07-22T03:04:37;10.73;;;8.82;;
49464;SDS011;35358;49.342;8.802;2022-07-22T03:07:05;12.38;;;9.45;;
49464;SDS011;35358;49.342;8.802;2022-07-22T03:09:33;14.60;;;9.85;;
49464;SDS011;35358;49.342;8.802;2022-07-22T03:12:01;12.05;;;10.07;;
49464;SDS011;35358;49.342;8.802;2022-07-22T03:14:26;9.68;;;8.68;;
49464;SDS011;35358;49.342;8.802;2022-07-22T03:16:52;15.50;;;9.05;;
49464;SDS011;35358;49.342;8.802;2022-07-22T03:19:17;9.80;;;8.88;;
49464;SDS011;35358;49.342;8.802;2022-07-22T03:21:48;11.15;;;9.15;;
49464;SDS011;35358;49.342;8.802;2022-07-22T03:24:13;11.25;;;9.23;;
49464;SDS011;35358;49.342;8.802;2022-07-22T03:26:44;11.85;;;9.18;;
49464;SDS011;35358;49.342;8.802;2022-07-22T03:29:09;11.13;;;8.50;;
49464;SDS011;35358;49.342;8.802;2022-07-22T03:31:37;9.38;;;8.25;;
49464;SDS011;35358;49.342;8.802;2022-07-22T03:34:05;11.15;;;9.02;;
49464;SDS011;35358;49.342;8.802;2022-07-22T03:36:30;9.05;;;8.02;;
49464;SDS011;35358;49.342;8.802;2022-07-22T03:39:06;13.73;;;8.93;;
49464;SDS011;35358;49.342;8.802;2022-07-22T03:41:31;10.90;;;9.27;;
49464;SDS011;35358;49.342;8.802;2022-07-22T03:43:59;9.98;;;8.40;;
49464;SDS011;35358;49.342;8.802;2022-07-22T03:46:25;11.32;;;9.18;;
49464;SDS011;35358;49.342;8.802;2022-07-22T03:48:51;9.40;;;8.30;;
49464;SDS011;35358;49.342;8.802;2022-07-22T03:51:16;10.15;;;9.15;;
49464;SDS011;35358;49.342;8.802;2022-07-22T03:53:42;11.45;;;9.60;;
49464;SDS011;35358;49.342;8.802;2022-07-22T03:56:07;11.95;;;9.35;;
49464;SDS011;35358;49.342;8.802;2022-07-22T03:58:35;12.68;;;9.32;;
49464;SDS011;35358;49.342;8.802;2022-07-22T04:01:01;11.63;;;9.35;;
49464;SDS011;35358;49.342;8.802;2022-07-22T04:03:29;9.63;;;8.68;;
49464;SDS011;35358;49.342;8.802;2022-07-22T04:05:57;14.95;;;9.48;;
49464;SDS011;35358;49.342;8.802;2022-07-22T04:08:25;9.00;;;8.10;;
49464;SDS011;35358;49.342;8.802;2022-07-22T04:10:52;9.73;;;8.75;;
49464;SDS011;35358;49.342;8.802;2022-07-22T04:13:18;10.02;;;8.43;;
49464;SDS011;35358;49.342;8.802;2022-07-22T04:15:44;9.02;;;8.15;;
49464;SDS011;35358;49.342;8.802;2022-07-22T04:18:09;10.00;;;8.98;;
49464;SDS011;35358;49.342;8.802;2022-07-22T04:20:35;13.13;;;9.48;;
49464;SDS011;35358;49.342;8.802;2022-07-22T04:23:00;11.30;;;10.10;;
49464;SDS011;35358;49.342;8.802;2022-07-22T04:25:26;10.23;;;8.93;;
49464;SDS011;35358;49.342;8.802;2022-07-22T04:27:52;10.63;;;9.63;;
49464;SDS011;35358;49.342;8.802;2022-07-22T04:30:21;10.63;;;9.43;;
49464;SDS011;35358;49.342;8.802;2022-07-22T04:32:48;10.98;;;8.73;;
49464;SDS011;35358;49.342;8.802;2022-07-22T04:35:14;12.20;;;8.80;;
49464;SDS011;35358;49.342;8.802;2022-07-22T04:37:40;12.73;;;7.88;;
49464;SDS011;35358;49.342;8.802;2022-07-22T04:40:05;10.65;;;9.15;;
49464;SDS011;35358;49.342;8.802;2022-07-22T04:42:31;10.05;;;8.52;;
49464;SDS011;35358;49.342;8.802;2022-07-22T04:44:57;11.75;;;8.75;;
49464;SDS011;35358;49.342;8.802;2022-07-22T04:47:23;11.65;;;9.15;;
49464;SDS011;35358;49.342;8.802;2022-07-22T04:49:48;10.13;;;8.95;;
49464;SDS011;35358;49.342;8.802;2022-07-22T04:52:17;14.70;;;9.82;;
49464;SDS011;35358;49.342;8.802;2022-07-22T04:54:43;10.48;;;9.20;;
49464;SDS011;35358;49.342;8.802;2022-07-22T04:57:09;13.27;;;9.77;;
49464;SDS011;35358;49.342;8.802;2022-07-22T04:59:35;12.68;;;8.85;;
49464;SDS011;35358;49.342;8.802;2022-07-22T05:02:03;12.20;;;9.35;;
49464;SDS011;35358;49.342;8.802;2022-07-22T05:04:30;9.82;;;8.85;;
49464;SDS011;35358;49.342;8.802;2022-07-22T05:06:56;9.95;;;8.95;;
49464;SDS011;35358;49.342;8.802;2022-07-22T05:09:22;11.13;;;9.75;;
49464;SDS011;35358;49.342;8.802;2022-07-22T05:11:50;13.27;;;9.88;;
49464;SDS011;35358;49.342;8.802;2022-07-22T05:14:15;13.93;;;10.27;;
49464;SDS011;35358;49.342;8.802;2022-07-22T05:16:43;12.75;;;9.68;;
49464;SDS011;35358;49.342;8.802;2022-07-22T05:19:09;10.00;;;9.00;;
49464;SDS011;35358;49.342;8.802;2022-07-22T05:21:34;10.43;;;9.25;;
49464;SDS011;35358;49.342;8.802;2022-07-22T05:24:00;10.45;;;9.38;;
49464;SDS011;35358;49.342;8.802;2022-07-22T05:26:26;12.57;;;9.88;;
49464;SDS011;35358;49.342;8.802;2022-07-22T05:28:54;12.43;;;9.55;;
49464;SDS011;35358;49.342;8.802;2022-07-22T05:31:20;11.27;;;10.07;;
49464;SDS011;35358;49.342;8.802;2022-07-22T05:33:46;11.13;;;9.50;;
49464;SDS011;35358;49.342;8.802;2022-07-22T05:36:14;12.07;;;9.88;;
49464;SDS011;35358;49.342;8.802;2022-07-22T05:38:40;11.25;;;10.05;;
49464;SDS011;35358;49.342;8.802;2022-07-22T05:41:07;14.50;;;9.68;;
49464;SDS011;35358;49.342;8.802;2022-07-22T05:43:36;12.23;;;10.27;;
49464;SDS011;35358;49.342;8.802;2022-07-22T05:46:01;10.40;;;9.27;;
49464;SDS011;35358;49.342;8.802;2022-07-22T05:48:27;11.80;;;9.13;;
49464;SDS011;35358;49.342;8.802;2022-07-22T05:50:53;11.23;;;9.77;;
49464;SDS011;35358;49.342;8.802;2022-07-22T05:53:19;12.75;;;10.25;;
49464;SDS011;35358;49.342;8.802;2022-07-22T05:55:44;12.80;;;8.98;;
49464;SDS011;35358;49.342;8.802;2022-07-22T05:58:10;11.90;;;8.80;;
49464;SDS011;35358;49.342;8.802;2022-07-22T06:00:38;11.15;;;9.20;;
49464;SDS011;35358;49.342;8.802;2022-07-22T06:03:06;10.67;;;9.53;;
49464;SDS011;35358;49.342;8.802;2022-07-22T06:05:32;10.07;;;9.05;;
49464;SDS011;35358;49.342;8.802;2022-07-22T06:08:00;9.95;;;8.32;;
49464;SDS011;35358;49.342;8.802;2022-07-22T06:10:26;10.57;;;9.20;;
49464;SDS011;35358;49.342;8.802;2022-07-22T06:12:54;11.02;;;9.15;;
49464;SDS011;35358;49.342;8.802;2022-07-22T06:15:20;13.02;;;9.00;;
49464;SDS011;35358;49.342;8.802;2022-07-22T06:17:48;12.63;;;8.15;;
49464;SDS011;35358;49.342;8.802;2022-07-22T06:20:13;10.52;;;8.43;;
49464;SDS011;35358;49.342;8.802;2022-07-22T06:22:39;10.45;;;8.68;;
49464;SDS011;35358;49.342;8.802;2022-07-22T06:25:08;9.97;;;8.23;;
49464;SDS011;35358;49.342;8.802;2022-07-22T06:27:33;8.73;;;7.40;;
49464;SDS011;35358;49.342;8.802;2022-07-22T06:29:59;8.90;;;7.40;;
49464;SDS011;35358;49.342;8.802;2022-07-22T06:32:25;9.07;;;7.60;;
49464;SDS011;35358;49.342;8.802;2022-07-22T06:34:50;9.15;;;7.47;;
49464;SDS011;35358;49.342;8.802;2022-07-22T06:37:16;8.50;;;7.13;;
49464;SDS011;35358;49.342;8.802;2022-07-22T06:39:41;10.38;;;7.68;;
49464;SDS011;35358;49.342;8.802;2022-07-22T06:42:07;9.18;;;6.90;;
49464;SDS011;35358;49.342;8.802;2022-07-22T06:44:33;8.40;;;6.97;;
49464;SDS011;35358;49.342;8.802;2022-07-22T06:47:01;8.10;;;6.50;;
49464;SDS011;35358;49.342;8.802;2022-07-22T06:49:26;9.80;;;6.93;;
49464;SDS011;35358;49.342;8.802;2022-07-22T06:51:54;9.65;;;6.75;;
49464;SDS011;35358;49.342;8.802;2022-07-22T06:54:20;7.90;;;7.10;;
49464;SDS011;35358;49.342;8.802;2022-07-22T06:56:45;9.30;;;7.25;;
49464;SDS011;35358;49.342;8.802;2022-07-22T06:59:13;8.65;;;6.60;;
49464;SDS011;35358;49.342;8.802;2022-07-22T07:01:41;8.43;;;7.47;;
49464;SDS011;35358;49.342;8.802;2022-07-22T07:04:07;9.10;;;7.30;;
49464;SDS011;35358;49.342;8.802;2022-07-22T07:06:32;7.65;;;6.85;;
49464;SDS011;35358;49.342;8.802;2022-07-22T07:09:00;8.85;;;7.00;;
49464;SDS011;35358;49.342;8.802;2022-07-22T07:11:28;8.48;;;7.13;;
49464;SDS011;35358;49.342;8.802;2022-07-22T07:13:54;8.00;;;6.63;;
49464;SDS011;35358;49.342;8.802;2022-07-22T07:16:21;7.68;;;6.72;;
49464;SDS011;35358;49.342;8.802;2022-07-22T07:18:52;7.88;;;7.03;;
49464;SDS011;35358;49.342;8.802;2022-07-22T07:21:20;7.95;;;6.85;;
49464;SDS011;35358;49.342;8.802;2022-07-22T07:23:46;7.80;;;7.03;;
49464;SDS011;35358;49.342;8.802;2022-07-22T07:26:14;10.10;;;7.30;;
49464;SDS011;35358;49.342;8.802;2022-07-22T07:28:39;9.13;;;7.13;;
49464;SDS011;35358;49.342;8.802;2022-07-22T07:31:05;12.23;;;7.13;;
49464;SDS011;35358;49.342;8.802;2022-07-22T07:33:31;10.07;;;7.35;;
49464;SDS011;35358;49.342;8.802;2022-07-22T07:35:57;8.80;;;7.15;;
49464;SDS011;35358;49.342;8.802;2022-07-22T07:38:25;8.98;;;7.75;;
49464;SDS011;35358;49.342;8.802;2022-07-22T07:40:53;8.98;;;7.45;;
49464;SDS011;35358;49.342;8.802;2022-07-22T07:43:21;9.35;;;7.90;;
49464;SDS011;35358;49.342;8.802;2022-07-22T07:45:47;9.13;;;7.25;;
49464;SDS011;35358;49.342;8.802;2022-07-22T07:48:13;8.63;;;7.50;;
49464;SDS011;35358;49.342;8.802;2022-07-22T07:50:39;9.55;;;8.10;;
49464;SDS011;35358;49.342;8.802;2022-07-22T07:53:07;8.95;;;7.22;;
49464;SDS011;35358;49.342;8.802;2022-07-22T07:55:32;8.48;;;7.65;;
49464;SDS011;35358;49.342;8.802;2022-07-22T07:58:02;8.38;;;7.40;;
49464;SDS011;35358;49.342;8.802;2022-07-22T08:00:30;8.52;;;7.63;;
49464;SDS011;35358;49.342;8.802;2022-07-22T08:02:58;7.70;;;7.00;;
49464;SDS011;35358;49.342;8.802;2022-07-22T08:05:27;8.03;;;7.23;;
49464;SDS011;35358;49.342;8.802;2022-07-22T08:07:52;8.88;;;7.45;;
49464;SDS011;35358;49.342;8.802;2022-07-22T08:10:21;13.02;;;7.68;;
49464;SDS011;35358;49.342;8.802;2022-07-22T08:12:47;9.38;;;8.15;;
49464;SDS011;35358;49.342;8.802;2022-07-22T08:15:15;9.60;;;7.03;;
49464;SDS011;35358;49.342;8.802;2022-07-22T08:17:41;9.77;;;8.77;;
49464;SDS011;35358;49.342;8.802;2022-07-22T08:20:09;8.85;;;7.65;;
49464;SDS011;35358;49.342;8.802;2022-07-22T08:22:37;8.60;;;7.20;;
49464;SDS011;35358;49.342;8.802;2022-07-22T08:25:04;9.30;;;7.93;;
49464;SDS011;35358;49.342;8.802;2022-07-22T08:27:30;10.18;;;8.48;;
49464;SDS011;35358;49.342;8.802;2022-07-22T08:29:56;10.73;;;8.20;;
49464;SDS011;35358;49.342;8.802;2022-07-22T08:32:24;11.95;;;8.02;;
49464;SDS011;35358;49.342;8.802;2022-07-22T08:34:54;8.70;;;7.78;;
49464;SDS011;35358;49.342;8.802;2022-07-22T08:37:22;8.98;;;8.07;;
49464;SDS011;35358;49.342;8.802;2022-07-22T08:39:50;9.05;;;7.28;;
49464;SDS011;35358;49.342;8.802;2022-07-22T08:42:16;9.18;;;8.02;;
49464;SDS011;35358;49.342;8.802;2022-07-22T08:44:43;9.73;;;7.82;;
49464;SDS011;35358;49.342;8.802;2022-07-22T08:47:12;10.30;;;7.55;;
49464;SDS011;35358;49.342;8.802;2022-07-22T08:49:38;10.60;;;8.70;;
49464;SDS011;35358;49.342;8.802;2022-07-22T08:52:06;9.15;;;8.05;;
49464;SDS011;35358;49.342;8.802;2022-07-22T08:54:32;8.20;;;7.30;;
49464;SDS011;35358;49.342;8.802;2022-07-22T08:56:58;12.52;;;8.43;;
49464;SDS011;35358;49.342;8.802;2022-07-22T08:59:24;8.48;;;6.85;;
49464;SDS011;35358;49.342;8.802;2022-07-22T09:02:05;10.88;;;8.45;;
49464;SDS011;35358;49.342;8.802;2022-07-22T09:07:33;8.60;;;7.60;;
49464;SDS011;35358;49.342;8.802;2022-07-22T09:10:02;9.73;;;7.63;;
49464;SDS011;35358;49.342;8.802;2022-07-22T09:12:35;9.02;;;8.13;;
49464;SDS011;35358;49.342;8.802;2022-07-22T09:15:24;8.27;;;7.47;;
49464;SDS011;35358;49.342;8.802;2022-07-22T09:17:59;8.60;;;7.20;;
49464;SDS011;35358;49.342;8.802;2022-07-22T09:20:27;12.05;;;7.60;;
49464;SDS011;35358;49.342;8.802;2022-07-22T09:22:54;8.80;;;7.43;;
49464;SDS011;35358;49.342;8.802;2022-07-22T09:28:15;10.73;;;7.43;;
49464;SDS011;35358;49.342;8.802;2022-07-22T09:30:54;9.05;;;7.13;;
49464;SDS011;35358;49.342;8.802;2022-07-22T09:33:22;9.68;;;7.65;;
49464;SDS011;35358;49.342;8.802;2022-07-22T09:35:49;8.05;;;7.25;;
49464;SDS011;35358;49.342;8.802;2022-07-22T09:38:18;10.57;;;8.05;;
49464;SDS011;35358;49.342;8.802;2022-07-22T09:40:51;9.20;;;7.72;;
49464;SDS011;35358;49.342;8.802;2022-07-22T09:43:19;10.82;;;8.05;;
49464;SDS011;35358;49.342;8.802;2022-07-22T09:48:19;9.60;;;7.03;;
49464;SDS011;35358;49.342;8.802;2022-07-22T09:50:47;10.65;;;8.60;;
49464;SDS011;35358;49.342;8.802;2022-07-22T09:53:13;9.90;;;6.95;;
49464;SDS011;35358;49.342;8.802;2022-07-22T09:55:40;9.70;;;7.65;;
49464;SDS011;35358;49.342;8.802;2022-07-22T09:58:08;8.70;;;7.75;;
49464;SDS011;35358;49.342;8.802;2022-07-22T10:00:35;9.88;;;7.70;;
49464;SDS011;35358;49.342;8.802;2022-07-22T10:03:02;10.65;;;7.25;;
49464;SDS011;35358;49.342;8.802;2022-07-22T10:05:30;12.80;;;7.30;;
49464;SDS011;35358;49.342;8.802;2022-07-22T10:07:59;8.82;;;6.90;;
49464;SDS011;35358;49.342;8.802;2022-07-22T10:10:29;7.50;;;6.60;;
49464;SDS011;35358;49.342;8.802;2022-07-22T10:13:00;7.93;;;7.00;;
49464;SDS011;35358;49.342;8.802;2022-07-22T10:15:27;13.13;;;6.82;;
49464;SDS011;35358;49.342;8.802;2022-07-22T10:17:57;7.82;;;7.03;;
49464;SDS011;35358;49.342;8.802;2022-07-22T10:20:31;7.70;;;7.00;;
49464;SDS011;35358;49.342;8.802;2022-07-22T10:22:58;7.55;;;6.20;;
49464;SDS011;35358;49.342;8.802;2022-07-22T10:25:27;9.90;;;7.35;;
49464;SDS011;35358;49.342;8.802;2022-07-22T10:28:00;8.52;;;7.30;;
49464;SDS011;35358;49.342;8.802;2022-07-22T10:33:08;10.33;;;7.03;;
49464;SDS011;35358;49.342;8.802;2022-07-22T10:35:57;7.68;;;6.93;;
49464;SDS011;35358;49.342;8.802;2022-07-22T10:38:28;9.50;;;7.40;;
49464;SDS011;35358;49.342;8.802;2022-07-22T10:43:22;10.02;;;7.40;;
49464;SDS011;35358;49.342;8.802;2022-07-22T10:51:19;8.50;;;6.50;;
49464;SDS011;35358;49.342;8.802;2022-07-22T10:56:22;7.82;;;6.72;;
49464;SDS011;35358;49.342;8.802;2022-07-22T10:59:09;8.23;;;6.82;;
49464;SDS011;35358;49.342;8.802;2022-07-22T11:01:35;9.82;;;7.22;;
49464;SDS011;35358;49.342;8.802;2022-07-22T11:06:40;13.25;;;6.63;;
49464;SDS011;35358;49.342;8.802;2022-07-22T11:09:07;9.30;;;7.70;;
49464;SDS011;35358;49.342;8.802;2022-07-22T11:14:03;8.13;;;6.53;;
49464;SDS011;35358;49.342;8.802;2022-07-22T11:16:40;9.55;;;6.90;;
49464;SDS011;35358;49.342;8.802;2022-07-22T11:19:09;8.30;;;6.78;;
49464;SDS011;35358;49.342;8.802;2022-07-22T11:21:37;9.20;;;6.47;;
49464;SDS011;35358;49.342;8.802;2022-07-22T11:24:06;6.90;;;5.97;;
49464;SDS011;35358;49.342;8.802;2022-07-22T11:26:42;10.63;;;6.50;;
49464;SDS011;35358;49.342;8.802;2022-07-22T11:31:55;7.38;;;6.15;;
49464;SDS011;35358;49.342;8.802;2022-07-22T11:34:22;6.88;;;5.75;;
49464;SDS011;35358;49.342;8.802;2022-07-22T11:36:48;6.55;;;5.78;;
49464;SDS011;35358;49.342;8.802;2022-07-22T11:39:18;8.13;;;5.43;;
49464;SDS011;35358;49.342;8.802;2022-07-22T11:41:54;8.65;;;5.55;;
49464;SDS011;35358;49.342;8.802;2022-07-22T11:44:23;5.82;;;5.20;;
49464;SDS011;35358;49.342;8.802;2022-07-22T11:46:53;7.25;;;5.05;;
49464;SDS011;35358;49.342;8.802;2022-07-22T11:49:30;6.65;;;5.95;;
49464;SDS011;35358;49.342;8.802;2022-07-22T11:51:59;7.38;;;5.97;;
49464;SDS011;35358;49.342;8.802;2022-07-22T11:54:26;6.97;;;5.95;;
49464;SDS011;35358;49.342;8.802;2022-07-22T11:56:52;7.75;;;6.18;;
49464;SDS011;35358;49.342;8.802;2022-07-22T11:59:18;6.38;;;5.55;;
49464;SDS011;35358;49.342;8.802;2022-07-22T12:01:48;7.53;;;6.03;;
49464;SDS011;35358;49.342;8.802;2022-07-22T12:04:19;6.55;;;5.75;;
49464;SDS011;35358;49.342;8.802;2022-07-22T12:06:50;7.28;;;5.57;;
49464;SDS011;35358;49.342;8.802;2022-07-22T12:09:24;6.97;;;5.47;;
49464;SDS011;35358;49.342;8.802;2022-07-22T12:11:56;7.47;;;5.28;;
49464;SDS011;35358;49.342;8.802;2022-07-22T12:14:28;5.93;;;5.35;;
49464;SDS011;35358;49.342;8.802;2022-07-22T12:17:04;10.23;;;5.55;;
49464;SDS011;35358;49.342;8.802;2022-07-22T12:19:38;6.07;;;5.28;;
49464;SDS011;35358;49.342;8.802;2022-07-22T12:22:05;7.35;;;4.75;;
49464;SDS011;35358;49.342;8.802;2022-07-22T12:29:29;9.32;;;5.20;;
49464;SDS011;35358;49.342;8.802;2022-07-22T12:34:42;6.57;;;5.20;;
49464;SDS011;35358;49.342;8.802;2022-07-22T12:42:23;6.72;;;5.32;;
49464;SDS011;35358;49.342;8.802;2022-07-22T12:45:00;6.03;;;4.50;;
49464;SDS011;35358;49.342;8.802;2022-07-22T12:53:05;6.10;;;4.65;;
49464;SDS011;35358;49.342;8.802;2022-07-22T12:55:41;7.25;;;4.63;;
49464;SDS011;35358;49.342;8.802;2022-07-22T12:58:11;6.22;;;4.78;;
49464;SDS011;35358;49.342;8.802;2022-07-22T13:00:40;9.77;;;5.73;;
49464;SDS011;35358;49.342;8.802;2022-07-22T13:03:10;8.50;;;5.05;;
49464;SDS011;35358;49.342;8.802;2022-07-22T13:05:35;7.55;;;5.18;;
49464;SDS011;35358;49.342;8.802;2022-07-22T13:08:02;7.97;;;4.82;;
49464;SDS011;35358;49.342;8.802;2022-07-22T13:10:28;8.60;;;5.30;;
49464;SDS011;35358;49.342;8.802;2022-07-22T13:12:54;5.63;;;5.13;;
49464;SDS011;35358;49.342;8.802;2022-07-22T13:15:20;7.18;;;4.95;;
49464;SDS011;35358;49.342;8.802;2022-07-22T13:17:47;6.65;;;4.95;;
49464;SDS011;35358;49.342;8.802;2022-07-22T13:20:16;8.27;;;5.25;;
49464;SDS011;35358;49.342;8.802;2022-07-22T13:22:43;8.32;;;5.47;;
49464;SDS011;35358;49.342;8.802;2022-07-22T13:25:12;5.65;;;4.50;;
49464;SDS011;35358;49.342;8.802;2022-07-22T13:30:07;7.03;;;4.90;;
49464;SDS011;35358;49.342;8.802;2022-07-22T13:32:33;5.10;;;4.60;;
49464;SDS011;35358;49.342;8.802;2022-07-22T13:34:58;5.20;;;4.70;;
49464;SDS011;35358;49.342;8.802;2022-07-22T13:37:24;5.63;;;4.70;;
49464;SDS011;35358;49.342;8.802;2022-07-22T13:39:52;8.35;;;5.07;;
49464;SDS011;35358;49.342;8.802;2022-07-22T13:42:17;6.57;;;4.72;;
49464;SDS011;35358;49.342;8.802;2022-07-22T13:44:44;7.85;;;5.10;;
49464;SDS011;35358;49.342;8.802;2022-07-22T13:49:41;6.07;;;5.05;;
49464;SDS011;35358;49.342;8.802;2022-07-22T13:52:07;7.80;;;5.10;;
49464;SDS011;35358;49.342;8.802;2022-07-22T13:54:35;8.07;;;4.72;;
49464;SDS011;35358;49.342;8.802;2022-07-22T13:57:01;5.88;;;4.47;;
49464;SDS011;35358;49.342;8.802;2022-07-22T13:59:28;6.43;;;4.75;;
49464;SDS011;35358;49.342;8.802;2022-07-22T14:01:58;6.38;;;4.68;;
49464;SDS011;35358;49.342;8.802;2022-07-22T14:04:25;7.22;;;4.45;;
49464;SDS011;35358;49.342;8.802;2022-07-22T14:06:51;5.75;;;4.63;;
49464;SDS011;35358;49.342;8.802;2022-07-22T14:09:19;9.73;;;5.50;;
49464;SDS011;35358;49.342;8.802;2022-07-22T14:11:45;6.22;;;4.60;;
49464;SDS011;35358;49.342;8.802;2022-07-22T14:14:13;5.43;;;4.60;;
49464;SDS011;35358;49.342;8.802;2022-07-22T14:16:39;6.15;;;4.68;;
49464;SDS011;35358;49.342;8.802;2022-07-22T14:19:05;6.05;;;4.15;;
49464;SDS011;35358;49.342;8.802;2022-07-22T14:21:36;6.38;;;4.68;;
49464;SDS011;35358;49.342;8.802;2022-07-22T14:24:06;5.88;;;4.45;;
49464;SDS011;35358;49.342;8.802;2022-07-22T14:26:33;6.28;;;4.25;;
49464;SDS011;35358;49.342;8.802;2022-07-22T14:28:59;6.22;;;4.93;;
49464;SDS011;35358;49.342;8.802;2022-07-22T14:31:30;6.25;;;4.63;;
49464;SDS011;35358;49.342;8.802;2022-07-22T14:33:57;5.18;;;4.65;;
49464;SDS011;35358;49.342;8.802;2022-07-22T14:36:27;6.20;;;4.60;;
49464;SDS011;35358;49.342;8.802;2022-07-22T14:38:52;5.18;;;4.10;;
49464;SDS011;35358;49.342;8.802;2022-07-22T14:41:18;6.20;;;4.78;;
49464;SDS011;35358;49.342;8.802;2022-07-22T14:43:47;6.18;;;4.72;;
49464;SDS011;35358;49.342;8.802;2022-07-22T14:46:12;8.05;;;4.60;;
49464;SDS011;35358;49.342;8.802;2022-07-22T14:48:38;5.40;;;4.90;;
49464;SDS011;35358;49.342;8.802;2022-07-22T14:51:06;6.78;;;4.32;;
49464;SDS011;35358;49.342;8.802;2022-07-22T14:53:32;7.17;;;5.30;;
49464;SDS011;35358;49.342;8.802;2022-07-22T14:55:58;5.57;;;4.57;;
49464;SDS011;35358;49.342;8.802;2022-07-22T14:58:25;5.15;;;4.32;;
49464;SDS011;35358;49.342;8.802;2022-07-22T15:00:53;5.45;;;4.95;;
49464;SDS011;35358;49.342;8.802;2022-07-22T15:03:18;4.97;;;4.57;;
49464;SDS011;35358;49.342;8.802;2022-07-22T15:05:44;5.22;;;4.72;;
49464;SDS011;35358;49.342;8.802;2022-07-22T15:08:10;6.47;;;4.95;;
49464;SDS011;35358;49.342;8.802;2022-07-22T15:10:36;6.07;;;4.60;;
49464;SDS011;35358;49.342;8.802;2022-07-22T15:13:04;7.72;;;4.93;;
49464;SDS011;35358;49.342;8.802;2022-07-22T15:15:32;5.35;;;4.55;;
49464;SDS011;35358;49.342;8.802;2022-07-22T15:17:59;5.70;;;4.93;;
49464;SDS011;35358;49.342;8.802;2022-07-22T15:20:25;5.65;;;4.88;;
49464;SDS011;35358;49.342;8.802;2022-07-22T15:22:53;6.80;;;5.23;;
49464;SDS011;35358;49.342;8.802;2022-07-22T15:25:19;5.18;;;4.38;;
49464;SDS011;35358;49.342;8.802;2022-07-22T15:30:14;6.00;;;5.00;;
49464;SDS011;35358;49.342;8.802;2022-07-22T15:32:42;6.60;;;4.80;;
49464;SDS011;35358;49.342;8.802;2022-07-22T15:35:08;7.23;;;4.83;;
49464;SDS011;35358;49.342;8.802;2022-07-22T15:37:33;5.55;;;4.50;;
49464;SDS011;35358;49.342;8.802;2022-07-22T15:39:59;6.40;;;5.13;;